createdAt,value
2019-03-29T00:03:15.572Z,5.7
2019-03-29T00:08:20.983Z,5.7
2019-03-29T00:13:26.431Z,5.7
2019-03-29T00:18:31.771Z,5.6
2019-03-29T00:23:37.091Z,5.5
2019-03-29T00:28:42.410Z,5.5
2019-03-29T00:33:47.566Z,5.4
2019-03-29T00:38:52.703Z,5.4
2019-03-29T00:43:57.923Z,5.3
2019-03-29T00:49:03.150Z,5.3
2019-03-29T00:54:08.567Z,5.2
2019-03-29T00:59:14.284Z,5.2
2019-03-29T01:04:20.521Z,5.2
2019-03-29T01:09:25.841Z,5.1
2019-03-29T01:14:29.623Z,5.1
2019-03-29T01:19:34.736Z,5
2019-03-29T01:24:42.468Z,4.9
2019-03-29T01:29:47.499Z,4.9
2019-03-29T01:34:52.860Z,4.9
2019-03-29T01:39:58.686Z,4.8
2019-03-29T01:45:04.036Z,4.8
2019-03-29T01:50:10.321Z,4.7
2019-03-29T01:55:15.607Z,4.7
2019-03-29T02:00:20.681Z,4.7
2019-03-29T02:05:25.999Z,4.7
2019-03-29T02:10:32.361Z,4.7
2019-03-29T02:15:38.827Z,4.6
2019-03-29T02:20:43.978Z,4.6
2019-03-29T02:25:49.216Z,4.6
2019-03-29T02:30:54.746Z,4.6
2019-03-29T02:35:59.921Z,4.5
2019-03-29T02:41:05.496Z,4.4
2019-03-29T02:46:10.830Z,4.4
2019-03-29T02:51:16.171Z,4.4
2019-03-29T02:56:20.068Z,4.4
2019-03-29T03:01:25.218Z,4.3
2019-03-29T03:06:30.429Z,4.3
2019-03-29T03:11:35.793Z,4.3
2019-03-29T03:16:41.011Z,4.2
2019-03-29T03:21:46.184Z,4.2
2019-03-29T03:26:51.413Z,4.1
2019-03-29T03:31:56.800Z,4.1
2019-03-29T03:37:02.519Z,4.1
2019-03-29T03:42:07.543Z,4.1
2019-03-29T03:47:12.721Z,4
2019-03-29T03:52:18.041Z,4
2019-03-29T03:57:23.374Z,3.9
2019-03-29T04:02:28.480Z,3.8
2019-03-29T04:07:33.966Z,3.7
2019-03-29T04:12:39.378Z,3.6
2019-03-29T04:17:45.135Z,3.6
2019-03-29T04:22:50.380Z,3.6
2019-03-29T04:27:54.366Z,3.6
2019-03-29T04:32:58.242Z,3.7
2019-03-29T04:38:03.801Z,3.8
2019-03-29T04:43:08.913Z,3.9
2019-03-29T04:48:14.285Z,4.1
2019-03-29T04:53:19.323Z,4.2
2019-03-29T04:58:25.002Z,4.4
2019-03-29T05:03:30.065Z,4.6
2019-03-29T05:08:35.120Z,4.9
2019-03-29T05:13:40.280Z,5.1
2019-03-29T05:18:50.058Z,5.9
2019-03-29T05:23:55.326Z,5.9
2019-03-29T05:29:00.697Z,6.3
2019-03-29T05:34:06.062Z,6.8
2019-03-29T05:39:11.303Z,7.2
2019-03-29T05:44:17.473Z,7.7
2019-03-29T05:49:22.547Z,8.2
2019-03-29T05:54:27.737Z,8.7
2019-03-29T05:59:33.030Z,9.1
2019-03-29T06:04:38.493Z,9.6
2019-03-29T06:09:44.819Z,10
2019-03-29T06:14:49.912Z,10.3
2019-03-29T06:19:55.119Z,10.5
2019-03-29T06:25:00.439Z,10.9
2019-03-29T06:30:04.275Z,11.1
2019-03-29T06:35:09.647Z,11.3
2019-03-29T06:40:14.786Z,11.6
2019-03-29T06:45:20.069Z,11.8
2019-03-29T06:50:21.636Z,11.8
2019-03-29T06:55:25.181Z,12
2019-03-29T07:00:30.482Z,12.4
2019-03-29T07:05:35.541Z,12.9
2019-03-29T07:10:41.180Z,13.1
2019-03-29T07:15:46.395Z,13.4
2019-03-29T07:20:51.443Z,13.8
2019-03-29T07:25:58.238Z,15.1
2019-03-29T07:31:03.322Z,15.1
2019-03-29T07:36:08.248Z,15.9
2019-03-29T07:41:14.750Z,16.7
2019-03-29T07:46:13.869Z,18.4
2019-03-29T07:51:19.017Z,20
2019-03-29T07:56:24.099Z,21.7
2019-03-29T08:01:28.073Z,24
2019-03-29T08:06:36.545Z,26.3
2019-03-29T08:11:48.196Z,27.4
2019-03-29T08:16:43.231Z,27.4
2019-03-29T08:21:48.465Z,28.6
2019-03-29T08:26:53.807Z,30.3
2019-03-29T08:31:59.035Z,30
2019-03-29T08:37:04.173Z,28.2
2019-03-29T08:42:09.653Z,27.3
2019-03-29T08:47:13.541Z,25.5
2019-03-29T08:52:18.699Z,24.3
2019-03-29T08:57:23.810Z,23.7
2019-03-29T09:02:27.551Z,24.2
2019-03-29T09:07:46.500Z,24.5
2019-03-29T09:12:42.076Z,24.7
2019-03-29T09:17:47.124Z,24.7
2019-03-29T09:22:50.884Z,23.8
2019-03-29T09:27:55.989Z,24.4
2019-03-29T09:33:01.350Z,24.4
2019-03-29T09:38:06.554Z,23.5
2019-03-29T09:43:10.800Z,23.2
2019-03-29T09:48:16.192Z,23.2
2019-03-29T09:53:21.923Z,22.7
2019-03-29T09:58:30.322Z,23.7
2019-03-29T10:03:35.384Z,24.5
2019-03-29T10:08:40.565Z,24.5
2019-03-29T10:13:45.732Z,24.1
2019-03-29T10:18:50.911Z,24.5
2019-03-29T10:23:56.766Z,22.2
2019-03-29T10:29:01.718Z,22.1
2019-03-29T10:34:07.190Z,23.6
2019-03-29T10:39:12.745Z,25
2019-03-29T10:44:18.089Z,24
2019-03-29T10:54:25.252Z,25.4
2019-03-29T10:59:30.326Z,25.2
2019-03-29T11:04:35.556Z,25.8
2019-03-29T11:09:40.745Z,26.8
2019-03-29T11:14:45.802Z,26
2019-03-29T11:19:49.620Z,26.6
2019-03-29T11:24:53.481Z,24.6
2019-03-29T11:29:58.521Z,25.7
2019-03-29T11:35:03.718Z,26.7
2019-03-29T11:40:08.984Z,28.1
2019-03-29T11:45:14.952Z,27.8
2019-03-29T11:50:19.906Z,27.2
2019-03-29T11:55:25.222Z,28.2
2019-03-29T12:00:30.262Z,28.3
2019-03-29T12:05:38.066Z,25.4
2019-03-29T12:10:43.206Z,25.4
2019-03-29T12:15:48.267Z,26.2
2019-03-29T12:20:56.217Z,26
2019-03-29T12:26:01.556Z,25.9
2019-03-29T12:31:09.621Z,25.8
2019-03-29T12:36:14.832Z,25.6
2019-03-29T12:41:19.869Z,25.4
2019-03-29T12:46:25.239Z,25.7
2019-03-29T12:51:30.284Z,24.9
2019-03-29T12:56:35.495Z,23.7
2019-03-29T13:01:42.266Z,21.9
2019-03-29T13:06:49.605Z,21.9
2019-03-29T13:11:55.541Z,20.4
2019-03-29T13:22:07.980Z,19.8
2019-03-29T13:27:13.650Z,18.6
2019-03-29T13:32:17.359Z,18.5
2019-03-29T13:37:22.698Z,18.3
2019-03-29T13:42:28.368Z,18
2019-03-29T13:47:34.493Z,17.9
2019-03-29T13:52:39.538Z,17.9
2019-03-29T13:57:44.891Z,17.8
2019-03-29T14:02:50.118Z,17.8
2019-03-29T14:07:55.480Z,17.5
2019-03-29T14:13:00.695Z,17.7
2019-03-29T14:18:06.180Z,17.8
2019-03-29T14:23:11.231Z,17.4
2019-03-29T14:28:16.235Z,16.9
2019-03-29T14:33:21.189Z,17
2019-03-29T14:38:26.251Z,16.9
2019-03-29T14:43:31.953Z,16.7
2019-03-29T14:48:37.439Z,16.7
2019-03-29T14:53:42.535Z,16.6
2019-03-29T14:58:47.528Z,16.5
2019-03-29T15:03:52.501Z,16.3
2019-03-29T15:08:58.267Z,16
2019-03-29T15:14:03.405Z,16
2019-03-29T15:24:12.780Z,16
2019-03-29T15:29:19.299Z,15.9
2019-03-29T15:34:24.491Z,15.9
2019-03-29T15:39:30.911Z,16
2019-03-29T15:44:36.133Z,16
2019-03-29T15:49:55.063Z,16
2019-03-29T15:54:50.978Z,16
2019-03-29T15:59:56.648Z,15.9
2019-03-29T16:05:00.508Z,15.8
2019-03-29T16:10:06.428Z,15.8
2019-03-29T16:15:11.677Z,15.7
2019-03-29T16:20:17.417Z,15.7
2019-03-29T16:25:22.435Z,15.5
2019-03-29T16:30:29.340Z,15.1
2019-03-29T16:35:34.623Z,15.1
2019-03-29T16:40:40.528Z,14.9
2019-03-29T16:45:50.336Z,14.7
2019-03-29T16:50:56.876Z,14.5
2019-03-29T16:56:05.092Z,14.4
2019-03-29T17:01:10.582Z,14.4
2019-03-29T17:06:15.629Z,14.2
2019-03-29T17:11:20.803Z,14
2019-03-29T17:16:32.154Z,13.6
2019-03-29T17:21:27.823Z,13.6
2019-03-29T17:26:32.777Z,13.5
2019-03-29T17:31:38.109Z,13.3
2019-03-29T17:36:41.844Z,13
2019-03-29T17:41:47.140Z,12.8
2019-03-29T17:46:52.467Z,12.7
2019-03-29T17:51:57.787Z,12.6
2019-03-29T17:57:02.775Z,12.4
2019-03-29T18:02:11.603Z,12.1
2019-03-29T18:07:16.698Z,12.1
2019-03-29T18:12:21.965Z,12
2019-03-29T18:17:26.874Z,11.9
2019-03-29T18:22:32.531Z,11.8
2019-03-29T18:27:39.064Z,11.6
2019-03-29T18:32:48.861Z,11.2
2019-03-29T18:37:53.925Z,11.2
2019-03-29T18:42:58.562Z,10.9
2019-03-29T18:48:04.094Z,10.9
2019-03-29T18:53:09.882Z,10.4
2019-03-29T18:58:15.369Z,10.4
2019-03-29T19:03:15.812Z,10.3
2019-03-29T19:08:20.777Z,10.2
2019-03-29T19:13:28.821Z,10.2
2019-03-29T19:18:24.089Z,10.2
2019-03-29T19:23:29.306Z,10.2
2019-03-29T19:28:33.365Z,10.1
2019-03-29T19:33:39.798Z,10
2019-03-29T19:38:43.386Z,10
2019-03-29T19:43:48.889Z,9.9
2019-03-29T19:48:54.238Z,9.8
2019-03-29T19:54:09.323Z,9.3
2019-03-29T19:59:04.825Z,9.3
2019-03-29T20:04:11.632Z,9.1
2019-03-29T20:09:18.107Z,9.1
2019-03-29T20:14:23.986Z,9.1
2019-03-29T20:19:27.949Z,9
2019-03-29T20:24:39.394Z,9.2
2019-03-29T20:29:46.800Z,9.1
2019-03-29T20:34:56.026Z,9.1
2019-03-29T20:40:02.471Z,9
2019-03-29T20:45:08.148Z,9
2019-03-29T20:50:13.719Z,9
2019-03-29T20:55:18.093Z,9
2019-03-29T21:00:23.373Z,8.9
2019-03-29T21:05:29.392Z,8.8
2019-03-29T21:10:34.715Z,8.8
2019-03-29T21:15:40.295Z,8.8
2019-03-29T21:20:45.632Z,8.7
2019-03-29T21:25:51.187Z,8.7
2019-03-29T21:30:54.982Z,8.6
2019-03-29T21:36:00.213Z,8.5
2019-03-29T21:41:05.429Z,8.4
2019-03-29T21:46:11.243Z,8.4
2019-03-29T21:51:16.340Z,8.3
2019-03-29T21:56:20.252Z,8.1
2019-03-29T22:01:25.349Z,8.1
2019-03-29T22:06:30.741Z,8.1
2019-03-29T22:11:36.091Z,8.1
2019-03-29T22:16:41.482Z,8
2019-03-29T22:21:47.160Z,7.9
2019-03-29T22:26:52.621Z,7.8
2019-03-29T22:31:57.735Z,7.9
2019-03-29T22:37:03.706Z,7.9
2019-03-29T22:42:08.861Z,7.8
2019-03-29T22:47:14.387Z,7.8
2019-03-29T22:52:21.437Z,7.7
2019-03-29T22:57:26.601Z,7.7
2019-03-29T23:02:31.816Z,7.6
2019-03-29T23:07:37.338Z,7.4
2019-03-29T23:12:42.386Z,7.1
2019-03-29T23:17:48.167Z,7
2019-03-29T23:22:53.344Z,7
2019-03-29T23:27:58.638Z,7
2019-03-29T23:33:04.216Z,6.9
2019-03-29T23:38:09.628Z,6.9
2019-03-29T23:43:14.548Z,6.8
2019-03-29T23:48:20.062Z,6.7
2019-03-29T23:53:25.805Z,6.7
2019-03-29T23:58:31.312Z,6.7
